Time;durP1;ratioP1;P1;durP2;ratioP2;P2;SDS_P1;SDS_P2;PMS_P1;PMS_P2;Temp;Humidity;BMP_temperature;BMP_pressure;BME280_temperature;BME280_humidity;BME280_pressure;Samples;Min_cycle;Max_cycle;Signal;HPM_P1;HPM_P2
2022/06/07 00:02:19;;;;;;;19.07;9.37;;;12.30;99.90;;;;;;4871422;29;20045;-82
2022/06/07 00:04:45;;;;;;;16.00;9.70;;;12.30;99.90;;;;;;4847392;29;20056;-82
2022/06/07 00:07:11;;;;;;;18.70;10.23;;;12.30;99.90;;;;;;4862088;29;20044;-83
2022/06/07 00:09:36;;;;;;;16.53;10.37;;;12.30;99.90;;;;;;4851756;29;20140;-81
2022/06/07 00:12:03;;;;;;;17.13;10.10;;;12.30;99.90;;;;;;4866887;29;20044;-83
2022/06/07 00:14:34;;;;;;;21.43;11.60;;;12.30;99.90;;;;;;4830055;29;20526;-82
2022/06/07 00:17:00;;;;;;;19.30;12.00;;;12.30;99.90;;;;;;4866593;29;20051;-83
2022/06/07 00:19:26;;;;;;;24.70;13.17;;;12.30;99.90;;;;;;4853012;29;20064;-84
2022/06/07 00:21:52;;;;;;;21.17;13.13;;;12.30;99.90;;;;;;4856071;29;20048;-83
2022/06/07 00:24:19;;;;;;;18.53;13.20;;;12.30;99.90;;;;;;4848583;29;20057;-83
2022/06/07 00:26:46;;;;;;;22.60;14.90;;;12.30;99.90;;;;;;4863125;29;20768;-83
2022/06/07 00:29:12;;;;;;;23.50;14.53;;;12.30;99.90;;;;;;4862955;29;20430;-83
2022/06/07 00:31:42;;;;;;;20.87;13.53;;;12.30;99.90;;;;;;4866753;29;20044;-83
2022/06/07 00:34:09;;;;;;;21.47;14.27;;;12.30;99.90;;;;;;4851465;29;20048;-83
2022/06/07 00:36:36;;;;;;;22.57;14.60;;;12.30;99.90;;;;;;4867954;29;20053;-83
2022/06/07 00:39:03;;;;;;;20.93;13.73;;;12.30;99.90;;;;;;4859934;29;20075;-83
2022/06/07 00:41:29;;;;;;;20.80;14.83;;;12.30;99.90;;;;;;4846194;29;20087;-85
2022/06/07 00:44:24;;;;;;;24.93;15.43;;;12.30;99.90;;;;;;4847890;29;20077;-83
2022/06/07 00:46:59;;;;;;;23.03;15.47;;;12.40;99.90;;;;;;4848112;29;20047;-82
2022/06/07 00:49:28;;;;;;;25.57;16.13;;;12.40;99.90;;;;;;4856007;29;20495;-83
2022/06/07 00:51:54;;;;;;;23.97;15.80;;;12.30;99.90;;;;;;4864317;29;20033;-82
2022/06/07 00:54:21;;;;;;;29.47;16.00;;;12.30;99.90;;;;;;4865342;29;20092;-83
2022/06/07 00:56:49;;;;;;;23.90;16.03;;;12.40;99.90;;;;;;4876497;29;20048;-82
2022/06/07 00:59:15;;;;;;;25.50;15.60;;;12.40;99.90;;;;;;4861645;29;20094;-82
2022/06/07 01:01:41;;;;;;;25.47;16.70;;;12.40;99.90;;;;;;4848708;29;20055;-82
2022/06/07 01:04:07;;;;;;;23.90;16.60;;;12.40;99.90;;;;;;4842618;29;20053;-83
2022/06/07 01:12:01;;;;;;;21.67;13.90;;;12.40;99.90;;;;;;4868503;29;20464;-83
2022/06/07 01:14:27;;;;;;;24.50;15.47;;;12.40;99.90;;;;;;4845565;29;20057;-84
2022/06/07 01:16:53;;;;;;;20.57;14.17;;;12.40;99.90;;;;;;4866674;29;20040;-83
2022/06/07 01:19:19;;;;;;;24.57;14.67;;;12.40;99.90;;;;;;4859382;29;20051;-84
2022/06/07 01:21:45;;;;;;;23.57;15.13;;;12.40;99.90;;;;;;4863732;29;20044;-83
2022/06/07 01:24:13;;;;;;;21.30;14.47;;;12.40;99.90;;;;;;4848372;29;20061;-83
2022/06/07 01:26:40;;;;;;;17.23;13.40;;;12.40;99.90;;;;;;4863776;29;20045;-84
2022/06/07 01:29:05;;;;;;;24.37;15.20;;;12.50;99.90;;;;;;4832314;29;20399;-85
2022/06/07 01:31:32;;;;;;;22.03;14.27;;;12.50;99.90;;;;;;4837857;29;20051;-84
2022/06/07 01:33:57;;;;;;;24.57;15.23;;;12.50;99.90;;;;;;4855038;29;20463;-82
2022/06/07 01:36:23;;;;;;;22.33;14.87;;;12.50;99.90;;;;;;4850215;29;20040;-82
2022/06/07 01:41:53;;;;;;;21.20;14.97;;;12.50;99.90;;;;;;4865585;29;20056;-84
2022/06/07 01:44:19;;;;;;;23.93;16.53;;;12.50;99.90;;;;;;4867520;29;20096;-82
2022/06/07 01:46:45;;;;;;;26.90;17.20;;;12.50;99.90;;;;;;4850490;29;20044;-82
2022/06/07 01:49:10;;;;;;;24.30;17.07;;;12.50;99.90;;;;;;4865470;29;20491;-83
2022/06/07 01:51:36;;;;;;;26.33;17.47;;;12.60;99.90;;;;;;4834914;29;20083;-83
2022/06/07 01:54:02;;;;;;;23.73;15.60;;;12.60;99.90;;;;;;4865691;29;20044;-83
2022/06/07 01:56:28;;;;;;;22.00;15.80;;;12.60;99.90;;;;;;4880424;29;20044;-83
2022/06/07 01:58:54;;;;;;;23.27;15.90;;;12.60;99.90;;;;;;4874110;29;20049;-85
2022/06/07 02:01:19;;;;;;;20.43;14.83;;;12.60;99.90;;;;;;4825861;29;20100;-82
2022/06/07 02:03:45;;;;;;;20.63;13.77;;;12.60;99.90;;;;;;4862778;29;20403;-85
2022/06/07 02:06:12;;;;;;;18.67;13.57;;;12.60;99.90;;;;;;4854707;29;20044;-84
2022/06/07 02:08:41;;;;;;;18.73;13.73;;;12.60;99.90;;;;;;4849163;29;20041;-83
2022/06/07 02:11:15;;;;;;;20.67;15.13;;;12.70;99.90;;;;;;4862223;29;20209;-83
2022/06/07 02:13:41;;;;;;;20.20;13.63;;;12.70;99.90;;;;;;4828409;29;20052;-85
2022/06/07 02:16:07;;;;;;;20.57;14.33;;;12.70;99.90;;;;;;4858004;29;20044;-83
2022/06/07 02:18:34;;;;;;;20.07;14.30;;;12.60;99.90;;;;;;4857392;29;20036;-82
2022/06/07 02:21:00;;;;;;;19.90;13.30;;;12.60;99.90;;;;;;4861912;29;20490;-84
2022/06/07 02:23:30;;;;;;;21.37;13.77;;;12.70;99.90;;;;;;4850979;29;20081;-83
2022/06/07 02:26:03;;;;;;;19.90;14.63;;;12.70;99.90;;;;;;4862334;29;20044;-83
2022/06/07 02:28:34;;;;;;;18.90;13.70;;;12.60;99.90;;;;;;4864596;29;20049;-84
2022/06/07 02:31:02;;;;;;;20.43;14.00;;;12.60;99.90;;;;;;4870113;29;20036;-82
2022/06/07 02:33:28;;;;;;;20.73;13.67;;;12.60;99.90;;;;;;4852632;29;20063;-84
2022/06/07 02:35:54;;;;;;;21.47;13.07;;;12.70;99.90;;;;;;4873000;29;20044;-84
2022/06/07 02:38:21;;;;;;;23.73;13.90;;;12.70;99.90;;;;;;4822346;29;20148;-84
2022/06/07 02:40:48;;;;;;;22.40;13.37;;;12.60;99.90;;;;;;4852241;29;20105;-85
2022/06/07 02:43:14;;;;;;;19.10;12.97;;;12.70;99.90;;;;;;4852641;29;20037;-84
2022/06/07 02:45:39;;;;;;;17.53;12.60;;;12.60;99.90;;;;;;4867457;29;20041;-83
2022/06/07 02:48:06;;;;;;;21.23;13.73;;;12.70;99.90;;;;;;4854250;29;20101;-83
2022/06/07 02:50:32;;;;;;;22.40;13.20;;;12.70;99.90;;;;;;4856337;29;20052;-83
2022/06/07 02:52:57;;;;;;;20.43;13.10;;;12.70;99.90;;;;;;4859091;29;20047;-83
2022/06/07 02:55:24;;;;;;;18.17;12.83;;;12.70;99.90;;;;;;4851714;29;20064;-84
2022/06/07 02:57:50;;;;;;;17.13;13.10;;;12.70;99.90;;;;;;4861667;29;20041;-83
2022/06/07 03:00:16;;;;;;;21.03;13.27;;;12.70;99.90;;;;;;4861021;29;20048;-84
2022/06/07 03:02:43;;;;;;;18.97;12.77;;;12.70;99.90;;;;;;4846774;29;20044;-82
2022/06/07 03:05:12;;;;;;;20.50;13.00;;;12.70;99.90;;;;;;4859738;29;20056;-84
2022/06/07 03:07:39;;;;;;;18.23;12.27;;;12.60;99.90;;;;;;4873667;29;20043;-82
2022/06/07 03:10:07;;;;;;;21.70;13.97;;;12.70;99.90;;;;;;4873482;29;20086;-83
2022/06/07 03:12:33;;;;;;;21.27;12.93;;;12.70;99.90;;;;;;4868708;29;20127;-83
2022/06/07 03:14:59;;;;;;;19.30;12.43;;;12.70;99.90;;;;;;4876110;29;20131;-81
2022/06/07 03:17:25;;;;;;;22.10;13.43;;;12.70;99.90;;;;;;4842426;29;20037;-83
2022/06/07 03:19:51;;;;;;;20.27;13.03;;;12.70;99.90;;;;;;4870151;29;20123;-83
2022/06/07 03:22:20;;;;;;;23.80;13.63;;;12.70;99.90;;;;;;4861312;29;20128;-84
2022/06/07 03:24:46;;;;;;;17.40;11.97;;;12.70;99.90;;;;;;4860117;29;20136;-81
2022/06/07 03:27:13;;;;;;;20.13;13.13;;;12.70;99.90;;;;;;4874529;29;20452;-82
2022/06/07 03:29:39;;;;;;;18.40;12.80;;;12.70;99.90;;;;;;4852074;29;20041;-83
2022/06/07 03:32:06;;;;;;;22.53;12.77;;;12.60;99.90;;;;;;4866606;29;20097;-83
2022/06/07 03:34:33;;;;;;;17.87;12.07;;;12.70;99.90;;;;;;4848809;29;20065;-82
2022/06/07 03:36:59;;;;;;;20.33;13.03;;;12.70;99.90;;;;;;4865073;29;20533;-83
2022/06/07 03:39:25;;;;;;;23.13;13.20;;;12.70;99.90;;;;;;4861979;29;20049;-83
2022/06/07 03:41:51;;;;;;;21.60;12.43;;;12.70;99.90;;;;;;4833886;29;20052;-84
2022/06/07 03:44:17;;;;;;;20.57;12.57;;;12.70;99.90;;;;;;4858523;29;20527;-83
2022/06/07 03:46:45;;;;;;;19.80;12.70;;;12.70;99.90;;;;;;4866994;29;20045;-82
2022/06/07 03:49:10;;;;;;;20.40;12.90;;;12.70;99.90;;;;;;4830371;29;20042;-84
2022/06/07 03:51:36;;;;;;;22.87;13.67;;;12.70;99.90;;;;;;4830280;29;20101;-83
2022/06/07 03:54:04;;;;;;;19.87;12.97;;;12.70;99.90;;;;;;4853554;29;20041;-83
2022/06/07 03:56:29;;;;;;;21.20;13.03;;;12.70;99.90;;;;;;4867253;29;20051;-83
2022/06/07 03:58:55;;;;;;;23.00;13.10;;;12.80;99.90;;;;;;4865875;29;20413;-83
2022/06/07 04:01:23;;;;;;;21.37;13.53;;;12.70;99.90;;;;;;4847058;29;20048;-84
2022/06/07 04:03:51;;;;;;;22.90;14.27;;;12.70;99.90;;;;;;4863378;29;20097;-84
2022/06/07 04:06:18;;;;;;;25.03;13.13;;;12.80;99.90;;;;;;4863688;29;20384;-83
2022/06/07 04:08:44;;;;;;;23.57;13.27;;;12.70;99.90;;;;;;4848321;29;20466;-84
2022/06/07 04:11:12;;;;;;;22.50;13.53;;;12.80;99.90;;;;;;4847895;29;20072;-82
2022/06/07 04:13:38;;;;;;;20.70;13.20;;;12.70;99.90;;;;;;4865627;29;20167;-83
2022/06/07 04:16:09;;;;;;;24.77;13.00;;;12.70;99.90;;;;;;4866578;29;20530;-83
2022/06/07 04:18:34;;;;;;;23.77;13.97;;;12.70;99.90;;;;;;4866795;29;20040;-82
2022/06/07 04:21:01;;;;;;;22.23;13.53;;;12.80;99.90;;;;;;4873626;29;20495;-82
2022/06/07 04:23:26;;;;;;;21.67;13.30;;;12.80;99.90;;;;;;4847790;29;20120;-83
2022/06/07 04:25:52;;;;;;;19.40;13.50;;;12.80;99.90;;;;;;4847478;29;20132;-83
2022/06/07 04:28:18;;;;;;;21.37;13.47;;;12.80;99.90;;;;;;4832864;29;20045;-83
2022/06/07 04:30:49;;;;;;;22.37;13.93;;;12.80;99.90;;;;;;4852461;29;20109;-82
2022/06/07 04:33:15;;;;;;;22.83;13.40;;;12.80;99.90;;;;;;4868010;29;20040;-83
2022/06/07 04:35:43;;;;;;;22.47;13.37;;;12.80;99.90;;;;;;4854599;29;20055;-83
2022/06/07 04:38:08;;;;;;;21.70;13.13;;;12.80;99.90;;;;;;4850061;29;20071;-82
2022/06/07 04:40:37;;;;;;;22.50;13.60;;;12.80;99.90;;;;;;4848026;29;20538;-83
2022/06/07 04:43:02;;;;;;;20.57;13.00;;;12.80;99.90;;;;;;4863333;29;20080;-84
2022/06/07 04:45:28;;;;;;;20.47;13.03;;;12.90;99.90;;;;;;4832316;29;20447;-83
2022/06/07 04:47:54;;;;;;;20.20;13.57;;;12.80;99.90;;;;;;4847880;29;20123;-83
2022/06/07 04:50:19;;;;;;;22.03;13.20;;;12.80;99.90;;;;;;4832938;29;20088;-83
2022/06/07 04:52:46;;;;;;;23.53;13.17;;;12.80;99.90;;;;;;4847828;29;20128;-83
2022/06/07 04:55:14;;;;;;;21.93;12.30;;;12.90;99.90;;;;;;4840764;29;20452;-83
2022/06/07 04:57:40;;;;;;;26.03;14.03;;;12.90;99.90;;;;;;4833624;29;20057;-82
2022/06/07 05:00:08;;;;;;;22.40;13.10;;;12.90;99.90;;;;;;4847635;29;20049;-82
2022/06/07 05:02:35;;;;;;;19.67;13.20;;;12.90;99.90;;;;;;4847786;29;20395;-82
2022/06/07 05:05:03;;;;;;;19.97;13.37;;;12.90;99.90;;;;;;4833024;29;20037;-83
2022/06/07 05:07:28;;;;;;;24.07;14.97;;;12.90;99.90;;;;;;4845123;29;20055;-82
2022/06/07 05:09:54;;;;;;;24.37;13.57;;;12.90;99.90;;;;;;4845514;29;20048;-83
2022/06/07 05:12:20;;;;;;;20.40;13.70;;;12.90;99.90;;;;;;4861272;29;20206;-83
2022/06/07 05:14:45;;;;;;;24.83;14.10;;;12.90;99.90;;;;;;4846368;29;20351;-84
2022/06/07 05:17:11;;;;;;;23.60;13.80;;;12.90;99.90;;;;;;4815697;29;20105;-83
2022/06/07 05:19:37;;;;;;;23.13;13.73;;;12.90;99.90;;;;;;4843469;29;20055;-83
2022/06/07 05:22:03;;;;;;;21.17;14.10;;;12.90;99.90;;;;;;4831675;29;20105;-82
2022/06/07 05:24:29;;;;;;;25.93;14.67;;;12.90;99.90;;;;;;4861552;29;20463;-82
2022/06/07 05:26:58;;;;;;;21.20;13.87;;;12.90;99.90;;;;;;4831533;29;20547;-83
2022/06/07 05:29:33;;;;;;;22.27;13.23;;;12.90;99.90;;;;;;4862032;29;20530;-83
2022/06/07 05:31:59;;;;;;;24.67;14.00;;;12.90;99.90;;;;;;4859548;29;20056;-83
2022/06/07 05:34:25;;;;;;;19.60;14.33;;;12.90;99.90;;;;;;4847531;29;20045;-82
2022/06/07 05:36:51;;;;;;;22.40;13.10;;;12.90;99.90;;;;;;4847063;29;20092;-81
2022/06/07 05:39:26;;;;;;;25.83;14.03;;;12.90;99.90;;;;;;4847110;29;20425;-83
2022/06/07 05:41:52;;;;;;;21.47;13.83;;;12.90;99.90;;;;;;4847128;29;20055;-82
2022/06/07 05:44:19;;;;;;;21.50;13.80;;;13.00;99.90;;;;;;4862119;29;20045;-82
2022/06/07 05:46:46;;;;;;;23.57;14.87;;;12.90;99.90;;;;;;4823574;29;20032;-82
2022/06/07 05:49:12;;;;;;;22.63;14.87;;;12.90;99.90;;;;;;4846727;29;20121;-84
2022/06/07 05:51:38;;;;;;;21.83;13.47;;;12.90;99.90;;;;;;4846664;29;20403;-82
2022/06/07 05:54:06;;;;;;;23.60;14.13;;;12.90;99.90;;;;;;4846376;29;20040;-84
2022/06/07 05:56:33;;;;;;;23.90;14.53;;;12.90;99.90;;;;;;4846500;29;20083;-83
2022/06/07 05:58:59;;;;;;;22.47;15.37;;;12.90;99.90;;;;;;4846479;29;20039;-83
2022/06/07 06:01:26;;;;;;;21.47;14.70;;;12.80;99.90;;;;;;4846608;29;20045;-83
2022/06/07 06:03:54;;;;;;;22.03;14.27;;;12.80;99.90;;;;;;4846412;29;20044;-83
2022/06/07 06:06:20;;;;;;;24.07;14.50;;;12.80;99.90;;;;;;4846635;29;20041;-83
2022/06/07 06:11:32;;;;;;;23.07;14.90;;;12.70;99.90;;;;;;4861553;29;20076;-83
2022/06/07 06:13:58;;;;;;;22.40;14.90;;;12.70;99.90;;;;;;4846943;29;20442;-82
2022/06/07 06:16:24;;;;;;;22.40;14.03;;;12.70;99.90;;;;;;4831447;29;20072;-82
2022/06/07 06:18:56;;;;;;;19.50;13.60;;;12.70;99.90;;;;;;4846649;29;20439;-83
2022/06/07 06:21:25;;;;;;;25.50;14.23;;;12.70;99.90;;;;;;4846614;29;20041;-84
2022/06/07 06:23:51;;;;;;;24.43;14.83;;;12.70;99.90;;;;;;4846470;29;20049;-83
2022/06/07 06:26:20;;;;;;;24.10;14.80;;;12.70;99.90;;;;;;4880574;29;20418;-83
2022/06/07 06:28:46;;;;;;;25.47;15.70;;;12.70;99.90;;;;;;4846814;29;20041;-82
2022/06/07 06:31:13;;;;;;;19.70;13.27;;;12.60;99.90;;;;;;4868867;29;20072;-83
2022/06/07 06:33:40;;;;;;;17.60;11.60;;;12.60;99.90;;;;;;4874330;29;20124;-83
2022/06/07 06:36:08;;;;;;;16.27;12.10;;;12.50;99.90;;;;;;4841929;29;20569;-82
2022/06/07 06:38:34;;;;;;;17.17;12.27;;;12.50;99.90;;;;;;4879568;29;20048;-84
2022/06/07 06:41:07;;;;;;;15.33;10.53;;;12.40;99.90;;;;;;4835674;29;20104;-83
2022/06/07 06:43:33;;;;;;;15.47;10.13;;;12.40;99.90;;;;;;4831655;29;20052;-83
2022/06/07 06:46:07;;;;;;;17.00;11.10;;;12.30;99.90;;;;;;4880059;29;20041;-83
2022/06/07 06:48:32;;;;;;;17.77;11.43;;;12.40;99.90;;;;;;4864102;29;20581;-84
2022/06/07 06:51:04;;;;;;;19.00;11.37;;;12.30;99.90;;;;;;4856027;29;20116;-84
2022/06/07 06:53:33;;;;;;;14.85;10.95;;;12.30;99.90;;;;;;4851282;29;20083;-83
2022/06/07 06:55:59;;;;;;;17.40;11.27;;;12.40;99.90;;;;;;4850498;29;20495;-83
2022/06/07 06:58:26;;;;;;;18.43;11.43;;;12.30;99.90;;;;;;4861429;29;20045;-84
2022/06/07 07:01:13;;;;;;;18.63;10.20;;;12.30;99.90;;;;;;4862607;29;20055;-84
2022/06/07 07:03:40;;;;;;;15.87;9.67;;;12.30;99.90;;;;;;4866741;29;20458;-84
2022/06/07 07:06:08;;;;;;;11.97;9.23;;;12.20;99.90;;;;;;4873192;29;20088;-82
2022/06/07 07:08:36;;;;;;;15.20;9.37;;;12.20;99.90;;;;;;4900987;29;20036;-84
2022/06/07 07:11:10;;;;;;;14.03;9.33;;;12.20;99.90;;;;;;4862411;29;20048;-83
2022/06/07 07:13:37;;;;;;;12.63;9.00;;;12.30;99.90;;;;;;4875038;29;20044;-83
2022/06/07 07:16:04;;;;;;;15.97;9.77;;;12.30;99.90;;;;;;4858098;29;20056;-83
2022/06/07 07:18:31;;;;;;;14.70;9.43;;;12.30;99.90;;;;;;4860303;29;20407;-84
2022/06/07 07:20:56;;;;;;;13.57;9.17;;;12.30;99.90;;;;;;4878491;29;20494;-83
2022/06/07 07:23:24;;;;;;;16.87;9.67;;;12.40;99.90;;;;;;4857174;29;20051;-83
2022/06/07 07:25:50;;;;;;;19.63;11.07;;;12.40;99.90;;;;;;4859728;29;20067;-83
2022/06/07 07:28:17;;;;;;;15.13;10.87;;;12.40;99.90;;;;;;4851911;29;20043;-84
2022/06/07 07:30:42;;;;;;;17.93;11.80;;;12.50;99.90;;;;;;4843365;29;20033;-84
2022/06/07 07:33:08;;;;;;;18.53;12.03;;;12.50;99.90;;;;;;4823443;29;20480;-83
2022/06/07 07:35:34;;;;;;;17.13;11.77;;;12.60;99.90;;;;;;4847374;29;20049;-83
2022/06/07 07:38:02;;;;;;;18.37;11.93;;;12.60;99.90;;;;;;4859816;29;20048;-84
2022/06/07 07:40:28;;;;;;;22.83;12.83;;;12.70;99.90;;;;;;4867234;29;20044;-83
2022/06/07 07:42:54;;;;;;;16.93;11.43;;;12.70;99.90;;;;;;4855792;29;20519;-84
2022/06/07 07:45:20;;;;;;;21.03;10.97;;;12.70;99.90;;;;;;4815123;29;20042;-84
2022/06/07 07:47:45;;;;;;;11.30;8.43;;;12.70;99.90;;;;;;4864559;29;20068;-84
2022/06/07 07:50:12;;;;;;;15.97;8.17;;;12.80;99.90;;;;;;4849531;29;20850;-83
2022/06/07 07:52:38;;;;;;;14.77;8.57;;;12.80;99.90;;;;;;4848339;29;20182;-83
2022/06/07 07:55:05;;;;;;;13.63;7.50;;;12.80;99.90;;;;;;4860137;29;20418;-83
2022/06/07 07:57:31;;;;;;;12.87;7.87;;;12.80;99.90;;;;;;4856185;29;20045;-83
2022/06/07 07:59:58;;;;;;;11.43;6.57;;;12.80;99.90;;;;;;4856072;29;20056;-82
2022/06/07 08:02:24;;;;;;;14.20;6.87;;;12.80;99.90;;;;;;4845469;29;20041;-83
2022/06/07 08:04:50;;;;;;;10.13;6.03;;;12.80;99.90;;;;;;4878270;29;20081;-83
2022/06/07 08:07:16;;;;;;;11.33;5.70;;;12.80;99.90;;;;;;4848225;29;20049;-83
2022/06/07 08:09:43;;;;;;;11.83;5.90;;;12.80;99.90;;;;;;4848502;29;20260;-83
2022/06/07 08:12:09;;;;;;;13.10;5.00;;;12.70;99.90;;;;;;4864270;29;20049;-83
2022/06/07 08:14:36;;;;;;;11.40;5.40;;;12.70;99.90;;;;;;4874356;29;20512;-84
2022/06/07 08:17:03;;;;;;;9.10;5.33;;;12.70;99.90;;;;;;4866935;29;20087;-84
2022/06/07 08:19:30;;;;;;;8.23;5.43;;;12.70;99.90;;;;;;4867103;29;20465;-84
2022/06/07 08:21:56;;;;;;;13.80;6.73;;;12.70;99.90;;;;;;4882427;29;20132;-83
2022/06/07 08:24:21;;;;;;;12.47;5.43;;;12.70;99.90;;;;;;4874372;29;20140;-83
2022/06/07 08:26:49;;;;;;;13.10;5.90;;;12.70;99.90;;;;;;4848154;29;20132;-82
2022/06/07 08:29:16;;;;;;;12.87;5.90;;;12.70;99.90;;;;;;4878207;29;20119;-83
2022/06/07 08:31:42;;;;;;;12.83;5.50;;;12.70;99.90;;;;;;4848476;29;20147;-83
2022/06/07 08:39:41;;;;;;;12.80;5.63;;;12.70;99.90;;;;;;4865619;29;20053;-83
2022/06/07 08:42:28;;;;;;;12.77;5.97;;;12.70;99.90;;;;;;4866333;29;20051;-83
2022/06/07 08:44:59;;;;;;;9.57;5.67;;;12.80;99.90;;;;;;4862941;29;20522;-83
2022/06/07 08:47:31;;;;;;;10.93;6.17;;;12.80;99.90;;;;;;4838211;29;20040;-83
2022/06/07 08:49:59;;;;;;;11.63;6.82;;;12.80;99.90;;;;;;4865453;29;20048;-83
2022/06/07 08:52:29;;;;;;;13.33;7.30;;;12.80;99.90;;;;;;4856186;29;20399;-83
2022/06/07 08:54:58;;;;;;;14.60;8.03;;;12.80;99.90;;;;;;4865183;29;20051;-83
2022/06/07 08:57:36;;;;;;;16.70;7.57;;;12.80;99.90;;;;;;4856919;29;20048;-83
2022/06/07 09:00:26;;;;;;;13.40;7.80;;;12.80;99.90;;;;;;4862492;29;20414;-83
2022/06/07 09:03:37;;;;;;;16.20;8.17;;;12.80;99.90;;;;;;4873303;29;20105;-83
2022/06/07 09:06:05;;;;;;;16.30;9.20;;;12.80;99.90;;;;;;4844408;29;20475;-82
2022/06/07 09:08:42;;;;;;;13.60;8.27;;;12.80;99.90;;;;;;4855865;29;20048;-83
2022/06/07 09:14:17;;;;;;;17.95;9.20;;;12.80;99.90;;;;;;4865004;29;20060;-83
2022/06/07 09:16:43;;;;;;;16.87;9.23;;;12.90;99.90;;;;;;4862551;29;20048;-84
2022/06/07 09:19:21;;;;;;;17.80;9.00;;;12.80;99.90;;;;;;4869502;29;20044;-82
2022/06/07 09:21:49;;;;;;;18.23;9.40;;;12.90;99.90;;;;;;4880708;29;20174;-83
2022/06/07 09:24:41;;;;;;;21.87;9.27;;;12.90;99.90;;;;;;4881219;29;20060;-83
2022/06/07 09:27:18;;;;;;;19.02;8.93;;;12.90;99.90;;;;;;4856274;29;20044;-83
2022/06/07 09:29:59;;;;;;;16.07;10.10;;;12.90;99.90;;;;;;4881156;29;20101;-84
2022/06/07 09:32:31;;;;;;;19.23;9.05;;;12.90;99.90;;;;;;4863558;29;20414;-83
2022/06/07 09:35:00;;;;;;;16.45;8.25;;;12.90;99.90;;;;;;4867882;29;20056;-83
2022/06/07 09:37:52;;;;;;;18.57;8.70;;;12.90;99.90;;;;;;4877193;29;20048;-82
2022/06/07 09:40:31;;;;;;;15.27;8.40;;;12.90;99.90;;;;;;4837609;29;20052;-84
2022/06/07 09:43:13;;;;;;;15.90;9.17;;;13.00;99.90;;;;;;4873713;29;20052;-82
2022/06/07 09:45:45;;;;;;;;;;;13.00;99.90;;;;;;4879227;29;20041;-83
2022/06/07 09:48:29;;;;;;;12.93;9.00;;;13.00;99.90;;;;;;4848713;29;19924;-83
2022/06/07 09:51:07;;;;;;;10.97;7.67;;;13.00;99.90;;;;;;4845947;29;20045;-83
2022/06/07 09:53:36;;;;;;;13.13;6.80;;;13.10;99.90;;;;;;4846798;29;20495;-83
2022/06/07 09:56:18;;;;;;;14.47;7.87;;;13.10;99.90;;;;;;4855537;29;20047;-83
2022/06/07 09:58:47;;;;;;;12.90;7.20;;;13.10;99.90;;;;;;4855788;29;20136;-83
2022/06/07 10:01:36;;;;;;;10.23;6.50;;;13.30;99.90;;;;;;4857823;29;20095;-82
2022/06/07 10:04:30;;;;;;;12.83;6.17;;;13.30;99.90;;;;;;4850421;29;20186;-83
2022/06/07 10:07:08;;;;;;;11.50;6.00;;;13.40;99.90;;;;;;4852359;29;20041;-83
2022/06/07 10:09:52;;;;;;;9.27;4.90;;;13.50;99.90;;;;;;4845246;29;20041;-83
2022/06/07 10:12:46;;;;;;;7.90;4.93;;;13.50;99.90;;;;;;4868370;29;20075;-84
2022/06/07 10:15:27;;;;;;;7.00;4.60;;;13.40;99.90;;;;;;4845211;29;20489;-82
2022/06/07 10:18:04;;;;;;;8.32;4.97;;;13.40;99.90;;;;;;4866168;29;20052;-83
2022/06/07 10:21:01;;;;;;;5.30;4.20;;;13.40;99.90;;;;;;4863708;29;20576;-83
2022/06/07 10:23:45;;;;;;;5.37;3.67;;;13.30;99.90;;;;;;4862770;29;20056;-83
2022/06/07 10:26:28;;;;;;;7.53;4.23;;;13.20;99.90;;;;;;4879751;29;20061;-82
2022/06/07 10:29:21;;;;;;;8.07;4.50;;;13.20;99.90;;;;;;4877971;29;20037;-83
2022/06/07 10:32:02;;;;;;;8.37;5.03;;;13.20;99.90;;;;;;4875148;29;20055;-82
2022/06/07 10:34:36;;;;;;;7.20;4.70;;;13.20;99.90;;;;;;4852924;29;20092;-82
2022/06/07 10:37:07;;;;;;;7.83;5.20;;;13.10;99.90;;;;;;4854393;29;20702;-81
2022/06/07 10:39:57;;;;;;;9.57;4.70;;;13.10;99.90;;;;;;4879660;29;20491;-83
2022/06/07 10:42:29;;;;;;;7.63;4.67;;;13.10;99.90;;;;;;4864142;29;20045;-83
2022/06/07 10:45:11;;;;;;;7.60;4.97;;;13.00;99.90;;;;;;4871564;29;20041;-83
2022/06/07 10:47:48;;;;;;;;;;;13.00;99.90;;;;;;4851122;29;20083;-83
2022/06/07 10:50:55;;;;;;;7.93;4.67;;;13.00;99.90;;;;;;4850569;29;19977;-83
2022/06/07 10:53:26;;;;;;;9.50;4.90;;;12.90;99.90;;;;;;4854727;29;20063;-82
2022/06/07 10:56:13;;;;;;;8.00;4.67;;;12.90;99.90;;;;;;4866612;29;20376;-82
2022/06/07 10:58:41;;;;;;;9.03;5.00;;;13.00;99.90;;;;;;4867125;29;20052;-82
2022/06/07 11:01:14;;;;;;;11.83;4.97;;;12.90;99.90;;;;;;4857425;29;20112;-82
2022/06/07 11:03:52;;;;;;;8.37;4.37;;;12.90;99.90;;;;;;4867516;29;20398;-82
2022/06/07 11:09:38;;;;;;;6.73;4.23;;;13.00;99.90;;;;;;4868145;29;20048;-83
2022/06/07 11:12:13;;;;;;;6.47;4.60;;;13.00;99.90;;;;;;4860235;29;20044;-82
2022/06/07 11:14:45;;;;;;;5.43;3.80;;;13.10;99.90;;;;;;4882832;29;20391;-83
2022/06/07 11:17:26;;;;;;;6.15;4.40;;;13.20;99.90;;;;;;4851141;29;20044;-82
2022/06/07 11:19:53;;;;;;;4.63;3.23;;;13.20;99.90;;;;;;4872856;29;20096;-83
2022/06/07 11:22:21;;;;;;;4.57;3.47;;;13.20;99.90;;;;;;4864435;29;20041;-83
2022/06/07 11:24:59;;;;;;;6.20;3.57;;;13.20;99.90;;;;;;4848440;29;20093;-82
2022/06/07 11:27:27;;;;;;;6.97;3.20;;;13.20;99.90;;;;;;4863989;29;20068;-83
2022/06/07 11:30:20;;;;;;;3.23;2.73;;;13.30;99.90;;;;;;4867397;29;20842;-83
2022/06/07 11:32:55;;;;;;;4.40;2.20;;;13.40;99.90;;;;;;4852875;29;20049;-83
2022/06/07 11:35:45;;;;;;;2.30;2.10;;;13.40;99.90;;;;;;4878735;29;20060;-82
2022/06/07 11:38:32;;;;;;;4.03;2.37;;;13.30;99.90;;;;;;4846028;29;20582;-83
2022/06/07 11:41:38;;;;;;;1.70;1.60;;;13.40;99.90;;;;;;4869094;29;20044;-83
2022/06/07 11:44:12;;;;;;;1.87;1.27;;;13.40;99.90;;;;;;4808000;29;20627;-83
2022/06/07 11:46:50;;;;;;;3.17;1.57;;;13.40;99.90;;;;;;4873180;29;20053;-83
2022/06/07 11:49:25;;;;;;;2.97;2.10;;;13.30;99.90;;;;;;4854899;29;20042;-82
2022/06/07 11:52:11;;;;;;;1.73;1.63;;;13.30;99.90;;;;;;4869647;29;20044;-83
2022/06/07 11:54:47;;;;;;;1.67;1.40;;;13.20;99.90;;;;;;4856110;29;20057;-83
2022/06/07 11:57:31;;;;;;;3.07;1.33;;;13.20;99.90;;;;;;4848871;29;20049;-83
2022/06/07 12:00:15;;;;;;;3.63;1.83;;;13.20;99.90;;;;;;4863820;29;20056;-83
2022/06/07 12:02:41;;;;;;;3.77;1.63;;;13.10;99.90;;;;;;4864314;29;20048;-84
2022/06/07 12:05:26;;;;;;;2.70;1.70;;;13.20;99.90;;;;;;4853212;29;20056;-83
2022/06/07 12:08:21;;;;;;;2.60;1.63;;;13.10;99.90;;;;;;4848252;29;20045;-84
2022/06/07 12:11:21;;;;;;;5.17;2.00;;;13.10;99.90;;;;;;4853984;29;20041;-83
2022/06/07 12:13:56;;;;;;;5.37;1.90;;;13.00;99.90;;;;;;4868243;29;20517;-82
2022/06/07 12:16:41;;;;;;;3.93;2.13;;;12.90;99.90;;;;;;4855876;29;20076;-82
2022/06/07 12:19:26;;;;;;;4.37;2.17;;;12.90;99.90;;;;;;4890086;29;20056;-83
2022/06/07 12:22:13;;;;;;;6.90;2.23;;;12.90;99.90;;;;;;4869887;29;20075;-82
2022/06/07 12:24:47;;;;;;;3.40;2.00;;;12.90;99.90;;;;;;4856015;29;20064;-82
2022/06/07 12:27:30;;;;;;;3.47;2.40;;;12.90;99.90;;;;;;4848261;29;20052;-83
2022/06/07 12:30:04;;;;;;;3.80;2.23;;;12.90;99.90;;;;;;4848041;29;20044;-83
2022/06/07 12:32:32;;;;;;;4.47;2.53;;;13.00;99.90;;;;;;4848091;29;20049;-84
2022/06/07 12:35:26;;;;;;;6.77;2.40;;;13.00;99.90;;;;;;4847660;29;20045;-83
2022/06/07 12:38:00;;;;;;;5.77;2.70;;;13.20;99.90;;;;;;4878757;29;20053;-83
2022/06/07 12:40:44;;;;;;;6.07;2.53;;;13.20;99.90;;;;;;4871192;29;20436;-82
2022/06/07 12:43:29;;;;;;;5.67;2.40;;;13.30;99.90;;;;;;4867783;29;20049;-83
2022/06/07 12:46:29;;;;;;;3.43;2.40;;;13.40;99.90;;;;;;4869326;29;20088;-83
2022/06/07 12:48:57;;;;;;;3.97;2.53;;;13.50;99.90;;;;;;4858127;29;20124;-83
2022/06/07 12:51:23;;;;;;;2.83;2.13;;;13.50;99.90;;;;;;4871583;29;20052;-82
2022/06/07 12:53:56;;;;;;;5.43;2.30;;;13.50;99.90;;;;;;4866249;29;20592;-82
2022/06/07 12:56:22;;;;;;;5.27;2.43;;;13.50;99.90;;;;;;4881505;29;20062;-83
2022/06/07 12:58:53;;;;;;;4.47;2.50;;;13.40;99.90;;;;;;4866036;29;20052;-83
2022/06/07 13:01:26;;;;;;;4.35;2.40;;;13.30;99.90;;;;;;4866339;29;20041;-82
2022/06/07 13:03:56;;;;;;;4.30;2.37;;;13.30;99.90;;;;;;4865680;29;20048;-83
2022/06/07 13:06:23;;;;;;;4.30;2.70;;;13.30;99.90;;;;;;4871862;29;20135;-84
2022/06/07 13:08:58;;;;;;;5.50;2.80;;;13.30;99.90;;;;;;4864982;29;20393;-83
2022/06/07 13:11:25;;;;;;;6.57;2.50;;;13.40;99.90;;;;;;4862199;29;20052;-81
2022/06/07 13:13:51;;;;;;;6.07;2.90;;;13.50;99.90;;;;;;4847455;29;20045;-83
2022/06/07 13:16:20;;;;;;;6.37;2.57;;;13.70;99.90;;;;;;4865303;29;20048;-83